createdAt,value
2018-01-14T00:00:22.214Z,57.50
2018-01-14T00:01:22.229Z,38.70
2018-01-14T00:02:22.245Z,39.80
2018-01-14T00:03:22.261Z,53.50
2018-01-14T00:04:22.275Z,42.20
2018-01-14T00:05:22.292Z,36.50
2018-01-14T00:06:22.307Z,34.50
2018-01-14T00:07:22.323Z,36.00
2018-01-14T00:08:22.337Z,33.70
2018-01-14T00:09:22.503Z,34.10
2018-01-14T00:10:22.369Z,41.30
2018-01-14T00:11:22.386Z,36.50
2018-01-14T00:12:22.400Z,40.30
2018-01-14T00:13:22.414Z,37.90
2018-01-14T00:14:22.430Z,37.90
2018-01-14T00:15:22.445Z,33.70
2018-01-14T00:16:22.461Z,46.00
2018-01-14T00:17:22.475Z,37.40
2018-01-14T00:18:22.491Z,42.10
2018-01-14T00:19:22.507Z,50.30
2018-01-14T00:20:22.522Z,39.50
2018-01-14T00:21:22.538Z,42.80
2018-01-14T00:22:22.553Z,43.80
2018-01-14T00:23:22.568Z,38.80
2018-01-14T00:24:22.582Z,43.10
2018-01-14T00:25:22.598Z,40.70
2018-01-14T00:26:22.764Z,45.20
2018-01-14T00:27:22.630Z,39.70
2018-01-14T00:28:22.644Z,38.30
2018-01-14T00:29:22.660Z,115.10
2018-01-14T00:30:22.676Z,44.40
2018-01-14T00:31:22.693Z,42.80
2018-01-14T00:32:22.705Z,36.40
2018-01-14T00:33:22.722Z,38.30
2018-01-14T00:34:22.737Z,45.80
2018-01-14T00:35:22.752Z,37.50
2018-01-14T00:36:22.768Z,41.60
2018-01-14T00:37:22.782Z,37.70
2018-01-14T00:38:22.797Z,37.50
2018-01-14T00:39:22.814Z,41.10
2018-01-14T00:40:22.828Z,40.50
2018-01-14T00:41:22.843Z,39.00
2018-01-14T00:42:22.859Z,39.60
2018-01-14T00:43:22.874Z,37.70
2018-01-14T00:44:22.889Z,40.10
2018-01-14T00:45:22.905Z,37.90
2018-01-14T00:46:22.920Z,36.50
2018-01-14T00:47:22.940Z,38.40
2018-01-14T00:48:23.000Z,40.30
2018-01-14T00:49:22.966Z,62.50
2018-01-14T00:50:22.981Z,50.30
2018-01-14T00:51:22.997Z,58.50
2018-01-14T00:52:23.012Z,50.60
2018-01-14T00:53:23.027Z,62.90
2018-01-14T00:54:23.042Z,37.90
2018-01-14T00:55:23.059Z,45.10
2018-01-14T00:56:23.079Z,37.70
2018-01-14T00:57:23.088Z,41.60
2018-01-14T00:58:23.103Z,55.50
2018-01-14T00:59:23.119Z,38.60
2018-01-14T01:00:23.134Z,40.90
2018-01-14T01:01:23.150Z,41.50
2018-01-14T01:02:23.164Z,38.00
2018-01-14T01:03:23.180Z,40.10
2018-01-14T01:04:23.195Z,37.90
2018-01-14T01:05:23.211Z,38.00
2018-01-14T01:06:23.225Z,42.90
2018-01-14T01:07:23.241Z,41.30
2018-01-14T01:08:23.256Z,40.50
2018-01-14T01:09:23.272Z,35.00
2018-01-14T01:10:23.287Z,38.50
2018-01-14T01:11:23.302Z,36.80
2018-01-14T01:12:23.318Z,42.80
2018-01-14T01:13:23.332Z,39.40
2018-01-14T01:14:23.347Z,39.90
2018-01-14T01:15:23.363Z,46.90
2018-01-14T01:16:23.378Z,42.10
2018-01-14T01:17:23.392Z,39.10
2018-01-14T01:18:23.408Z,38.20
2018-01-14T01:19:23.423Z,43.80
2018-01-14T01:20:23.438Z,37.70
2018-01-14T01:21:23.453Z,39.60
2018-01-14T01:22:23.469Z,40.40
2018-01-14T01:23:23.484Z,41.60
2018-01-14T01:24:23.498Z,39.80
2018-01-14T01:25:23.513Z,38.20
2018-01-14T01:26:23.529Z,47.40
2018-01-14T01:27:23.544Z,42.40
2018-01-14T01:28:23.559Z,41.60
2018-01-14T01:29:23.574Z,44.00
2018-01-14T01:30:23.589Z,39.80
2018-01-14T01:31:23.605Z,44.30
2018-01-14T01:32:23.619Z,42.70
2018-01-14T01:33:23.634Z,39.40
2018-01-14T01:34:23.650Z,42.00
2018-01-14T01:35:23.667Z,39.00
2018-01-14T01:36:23.680Z,39.30
2018-01-14T01:37:23.695Z,41.40
2018-01-14T01:38:23.710Z,40.10
2018-01-14T01:39:23.726Z,42.40
2018-01-14T01:40:23.740Z,39.60
2018-01-14T01:41:23.756Z,35.40
2018-01-14T01:42:23.770Z,40.50
2018-01-14T01:43:23.841Z,37.10
2018-01-14T01:44:23.801Z,36.40
2018-01-14T01:45:23.816Z,39.70
2018-01-14T01:46:23.832Z,37.60
2018-01-14T01:47:23.852Z,68.70
2018-01-14T01:48:23.861Z,48.90
2018-01-14T01:49:23.877Z,65.20
2018-01-14T01:50:23.892Z,42.30
2018-01-14T01:51:23.908Z,42.70
2018-01-14T01:52:23.922Z,42.30
2018-01-14T01:53:23.941Z,38.80
2018-01-14T01:54:23.952Z,38.30
2018-01-14T01:55:23.968Z,36.80
2018-01-14T01:56:23.987Z,40.10
2018-01-14T01:57:23.997Z,39.70
2018-01-14T01:58:24.013Z,39.40
2018-01-14T01:59:24.029Z,36.80
2018-01-14T02:00:24.043Z,37.30
2018-01-14T02:01:24.058Z,41.10
2018-01-14T02:02:24.079Z,38.50
2018-01-14T02:03:24.089Z,38.40
2018-01-14T02:04:24.103Z,38.50
2018-01-14T02:05:24.118Z,36.80
2018-01-14T02:06:24.135Z,38.70
2018-01-14T02:07:24.149Z,39.20
2018-01-14T02:08:24.163Z,37.00
2018-01-14T02:09:24.178Z,40.40
2018-01-14T02:10:24.194Z,37.90
2018-01-14T02:11:24.209Z,40.00
2018-01-14T02:12:24.223Z,42.10
2018-01-14T02:13:24.238Z,38.30
2018-01-14T02:14:24.254Z,37.30
2018-01-14T02:15:24.272Z,39.30
2018-01-14T02:16:24.284Z,40.90
2018-01-14T02:17:24.299Z,41.90
2018-01-14T02:18:24.314Z,36.80
2018-01-14T02:19:24.329Z,40.90
2018-01-14T02:20:24.344Z,41.60
2018-01-14T02:21:24.359Z,37.80
2018-01-14T02:22:24.374Z,37.80
2018-01-14T02:23:24.389Z,38.00
2018-01-14T02:24:24.404Z,39.30
2018-01-14T02:25:24.419Z,38.70
2018-01-14T02:26:24.435Z,37.50
2018-01-14T02:27:24.451Z,41.10
2018-01-14T02:28:24.464Z,37.50
2018-01-14T02:29:24.479Z,39.40
2018-01-14T02:30:24.495Z,37.40
2018-01-14T02:31:24.510Z,42.40
2018-01-14T02:32:24.525Z,37.80
2018-01-14T02:33:24.539Z,37.80
2018-01-14T02:34:24.554Z,35.60
2018-01-14T02:35:24.570Z,35.10
2018-01-14T02:36:24.584Z,35.50
2018-01-14T02:37:24.599Z,39.00
2018-01-14T02:38:24.615Z,36.80
2018-01-14T02:39:24.631Z,36.30
2018-01-14T02:40:24.644Z,36.90
2018-01-14T02:41:24.661Z,39.40
2018-01-14T02:42:24.681Z,36.10
2018-01-14T02:43:24.690Z,36.60
2018-01-14T02:44:24.706Z,35.40
2018-01-14T02:45:24.720Z,38.90
2018-01-14T02:46:24.734Z,36.90
2018-01-14T02:47:24.752Z,38.00
2018-01-14T02:48:24.914Z,39.20
2018-01-14T02:49:24.779Z,34.60
2018-01-14T02:50:24.794Z,35.10
2018-01-14T02:51:24.810Z,35.30
2018-01-14T02:52:24.824Z,36.20
2018-01-14T02:53:24.839Z,36.50
2018-01-14T02:54:24.860Z,36.40
2018-01-14T02:55:24.871Z,35.00
2018-01-14T02:56:24.884Z,37.30
2018-01-14T02:57:24.900Z,37.20
2018-01-14T02:58:24.915Z,37.00
2018-01-14T02:59:24.929Z,39.50
2018-01-14T03:00:24.944Z,35.50
2018-01-14T03:01:24.960Z,36.80
2018-01-14T03:02:24.981Z,36.60
2018-01-14T03:03:24.989Z,37.70
2018-01-14T03:04:25.003Z,39.20
2018-01-14T03:05:25.019Z,38.00
2018-01-14T03:06:25.035Z,36.40
2018-01-14T03:07:25.049Z,40.50
2018-01-14T03:08:25.064Z,37.80
2018-01-14T03:09:25.079Z,39.30
2018-01-14T03:10:25.094Z,37.10
2018-01-14T03:11:25.110Z,38.30
2018-01-14T03:12:25.123Z,37.70
2018-01-14T03:13:25.138Z,37.80
2018-01-14T03:14:25.153Z,41.10
2018-01-14T03:15:25.169Z,36.10
2018-01-14T03:16:25.183Z,40.90
2018-01-14T03:17:25.201Z,34.90
2018-01-14T03:18:25.214Z,36.90
2018-01-14T03:19:25.228Z,38.00
2018-01-14T03:20:25.245Z,38.70
2018-01-14T03:21:25.258Z,35.40
2018-01-14T03:22:25.273Z,35.50
2018-01-14T03:23:25.288Z,37.10
2018-01-14T03:24:25.302Z,38.90
2018-01-14T03:25:25.318Z,37.50
2018-01-14T03:26:25.333Z,36.90
2018-01-14T03:27:25.347Z,38.40
2018-01-14T03:28:25.361Z,38.70
2018-01-14T03:29:25.388Z,37.90
2018-01-14T03:30:25.393Z,36.40
2018-01-14T03:31:25.409Z,39.40
2018-01-14T03:32:25.421Z,39.10
2018-01-14T03:33:25.437Z,36.20
2018-01-14T03:34:25.453Z,38.30
2018-01-14T03:35:25.467Z,39.90
2018-01-14T03:36:25.481Z,40.50
2018-01-14T03:37:25.500Z,43.60
2018-01-14T03:38:25.512Z,39.40
2018-01-14T03:39:25.527Z,38.50
2018-01-14T03:40:25.541Z,39.50
2018-01-14T03:41:25.556Z,38.90
2018-01-14T03:42:25.572Z,35.00
2018-01-14T03:43:25.586Z,40.50
2018-01-14T03:44:25.601Z,38.50
2018-01-14T03:45:25.617Z,41.00
2018-01-14T03:46:25.632Z,37.00
2018-01-14T03:47:25.647Z,38.30
2018-01-14T03:48:25.661Z,40.00
2018-01-14T03:49:25.676Z,38.90
2018-01-14T03:50:25.692Z,41.80
2018-01-14T03:51:25.706Z,44.90
2018-01-14T03:52:25.721Z,38.50
2018-01-14T03:53:25.736Z,41.30
2018-01-14T03:54:25.753Z,39.50
2018-01-14T03:55:25.770Z,38.50
2018-01-14T03:56:25.781Z,41.30
2018-01-14T03:57:25.797Z,39.80
2018-01-14T03:58:25.812Z,37.50
2018-01-14T03:59:25.827Z,36.70
2018-01-14T04:00:25.841Z,39.70
2018-01-14T04:01:25.856Z,40.00
2018-01-14T04:02:25.872Z,39.30
2018-01-14T04:03:25.887Z,39.00
2018-01-14T04:04:25.901Z,40.60
2018-01-14T04:05:25.916Z,41.20
2018-01-14T04:06:25.937Z,39.50
2018-01-14T04:07:25.948Z,40.00
2018-01-14T04:08:25.960Z,38.70
2018-01-14T04:09:25.976Z,43.30
2018-01-14T04:10:25.994Z,52.70
2018-01-14T04:11:26.008Z,48.30
2018-01-14T04:12:26.021Z,37.90
2018-01-14T04:13:26.039Z,41.80
2018-01-14T04:14:26.052Z,39.20
2018-01-14T04:15:26.067Z,41.40
2018-01-14T04:16:26.081Z,37.90
2018-01-14T04:17:26.096Z,39.40
2018-01-14T04:18:26.112Z,41.00
2018-01-14T04:19:26.127Z,35.10
2018-01-14T04:20:26.141Z,40.90
2018-01-14T04:21:26.156Z,40.20
2018-01-14T04:22:26.173Z,39.60
2018-01-14T04:23:26.186Z,44.20
2018-01-14T04:24:26.201Z,42.10
2018-01-14T04:25:26.268Z,38.70
2018-01-14T04:26:26.231Z,39.50
2018-01-14T04:27:26.246Z,40.10
2018-01-14T04:28:26.260Z,38.70
2018-01-14T04:29:26.275Z,41.40
2018-01-14T04:30:26.290Z,37.20
2018-01-14T04:31:26.306Z,39.40
2018-01-14T04:32:26.320Z,41.00
2018-01-14T04:33:26.335Z,41.90
2018-01-14T04:34:26.351Z,42.80
2018-01-14T04:35:26.366Z,34.90
2018-01-14T04:36:26.380Z,38.00
2018-01-14T04:37:26.395Z,42.10
2018-01-14T04:38:26.409Z,39.70
2018-01-14T04:39:26.425Z,39.70
2018-01-14T04:40:26.438Z,39.50
2018-01-14T04:41:26.454Z,38.60
2018-01-14T04:42:26.469Z,37.90
2018-01-14T04:43:26.484Z,39.10
2018-01-14T04:44:26.499Z,41.70
2018-01-14T04:45:26.513Z,38.50
2018-01-14T04:46:26.529Z,37.80
2018-01-14T04:47:26.544Z,36.60
2018-01-14T04:48:26.558Z,39.10
2018-01-14T04:49:26.572Z,40.20
2018-01-14T04:50:26.588Z,36.80
2018-01-14T04:51:26.653Z,35.60
2018-01-14T04:52:26.618Z,39.60
2018-01-14T04:53:26.632Z,38.40
2018-01-14T04:54:26.647Z,38.50
2018-01-14T04:55:26.662Z,36.40
2018-01-14T04:56:26.677Z,37.30
2018-01-14T04:57:26.691Z,37.40
2018-01-14T04:58:26.707Z,38.20
2018-01-14T04:59:26.721Z,41.10
2018-01-14T05:00:26.736Z,38.80
2018-01-14T05:01:26.750Z,39.10
2018-01-14T05:02:26.766Z,36.30
2018-01-14T05:03:26.782Z,39.90
2018-01-14T05:04:26.795Z,38.20
2018-01-14T05:05:26.811Z,35.70
2018-01-14T05:06:26.975Z,40.00
2018-01-14T05:07:26.840Z,39.70
2018-01-14T05:08:26.854Z,42.90
2018-01-14T05:09:26.871Z,40.00
2018-01-14T05:10:26.884Z,41.50
2018-01-14T05:11:26.900Z,38.90
2018-01-14T05:12:26.914Z,38.90
2018-01-14T05:13:26.929Z,41.00
2018-01-14T05:14:26.944Z,38.00
2018-01-14T05:15:26.959Z,39.00
2018-01-14T05:16:26.973Z,37.70
2018-01-14T05:17:26.988Z,42.50
2018-01-14T05:18:27.002Z,39.30
2018-01-14T05:19:27.019Z,37.40
2018-01-14T05:20:27.032Z,37.00
2018-01-14T05:21:27.048Z,37.60
2018-01-14T05:22:27.061Z,34.50
2018-01-14T05:23:27.081Z,42.10
2018-01-14T05:24:27.091Z,39.30
2018-01-14T05:25:27.105Z,38.70
2018-01-14T05:26:27.121Z,36.30
2018-01-14T05:27:27.137Z,38.60
2018-01-14T05:28:27.150Z,39.70
2018-01-14T05:29:27.169Z,41.10
2018-01-14T05:30:27.180Z,39.80
2018-01-14T05:31:27.196Z,37.70
2018-01-14T05:32:27.209Z,38.60
2018-01-14T05:33:27.225Z,36.10
2018-01-14T05:34:27.239Z,36.40
2018-01-14T05:35:27.254Z,37.70
2018-01-14T05:36:27.268Z,36.50
2018-01-14T05:37:27.283Z,37.30
2018-01-14T05:38:27.303Z,37.90
2018-01-14T05:39:27.314Z,40.80
2018-01-14T05:40:27.328Z,41.40
2018-01-14T05:41:27.344Z,38.20
2018-01-14T05:42:27.358Z,40.20
2018-01-14T05:43:27.382Z,38.70
2018-01-14T05:44:27.386Z,37.90
2018-01-14T05:45:27.551Z,36.00
2018-01-14T05:46:27.417Z,37.60
2018-01-14T05:47:27.432Z,37.60
2018-01-14T05:48:27.446Z,34.60
2018-01-14T05:49:27.460Z,45.10
2018-01-14T05:50:27.479Z,41.10
2018-01-14T05:51:27.491Z,37.30
2018-01-14T05:52:27.505Z,41.20
2018-01-14T05:53:27.520Z,38.50
2018-01-14T05:54:27.536Z,38.80
2018-01-14T05:55:27.550Z,36.40
2018-01-14T05:56:27.563Z,39.60
2018-01-14T05:57:27.579Z,36.20
2018-01-14T05:58:27.744Z,37.80
2018-01-14T05:59:27.610Z,39.90
2018-01-14T06:00:27.623Z,39.40
2018-01-14T06:01:27.639Z,41.20
2018-01-14T06:02:27.653Z,38.90
2018-01-14T06:03:27.670Z,41.00
2018-01-14T06:04:27.683Z,40.10
2018-01-14T06:05:27.704Z,38.70
2018-01-14T06:06:27.713Z,41.10
2018-01-14T06:07:27.727Z,41.50
2018-01-14T06:08:27.892Z,35.80
2018-01-14T06:09:27.757Z,34.50
2018-01-14T06:10:27.771Z,36.00
2018-01-14T06:11:27.786Z,37.90
2018-01-14T06:12:27.801Z,37.70
2018-01-14T06:13:27.815Z,40.30
2018-01-14T06:14:27.830Z,38.10
2018-01-14T06:15:27.845Z,39.20
2018-01-14T06:16:27.860Z,39.50
2018-01-14T06:17:27.875Z,39.40
2018-01-14T06:18:27.890Z,40.00
2018-01-14T06:19:27.904Z,38.90
2018-01-14T06:20:27.918Z,36.50
2018-01-14T06:21:27.933Z,38.30
2018-01-14T06:22:27.948Z,36.40
2018-01-14T06:23:27.963Z,37.90
2018-01-14T06:24:27.978Z,40.40
2018-01-14T06:25:27.992Z,37.90
2018-01-14T06:26:28.008Z,36.20
2018-01-14T06:27:28.023Z,38.00
2018-01-14T06:28:28.037Z,38.70
2018-01-14T06:29:28.052Z,42.10
2018-01-14T06:30:28.067Z,38.80
2018-01-14T06:31:28.082Z,39.00
2018-01-14T06:32:28.095Z,38.30
2018-01-14T06:33:28.110Z,37.60
2018-01-14T06:34:28.126Z,38.30
2018-01-14T06:35:28.141Z,39.10
2018-01-14T06:36:28.162Z,37.20
2018-01-14T06:37:28.170Z,36.00
2018-01-14T06:38:28.185Z,35.40
2018-01-14T06:39:28.200Z,42.10
2018-01-14T06:40:28.213Z,37.20
2018-01-14T06:41:28.229Z,38.60
2018-01-14T06:42:28.246Z,34.20
2018-01-14T06:43:28.259Z,33.10
2018-01-14T06:44:28.276Z,37.20
2018-01-14T06:45:28.288Z,36.70
2018-01-14T06:46:28.303Z,36.10
2018-01-14T06:47:28.317Z,38.40
2018-01-14T06:48:28.336Z,37.30
2018-01-14T06:49:28.347Z,38.00
2018-01-14T06:50:28.362Z,35.80
2018-01-14T06:51:28.378Z,36.00
2018-01-14T06:52:28.391Z,36.70
2018-01-14T06:53:28.406Z,36.20
2018-01-14T06:54:28.421Z,38.10
2018-01-14T06:55:28.435Z,38.20
2018-01-14T06:56:28.449Z,34.00
2018-01-14T06:57:28.465Z,38.00
2018-01-14T06:58:28.480Z,40.00
2018-01-14T06:59:28.495Z,35.90
2018-01-14T07:00:28.511Z,40.50
2018-01-14T07:01:28.523Z,37.40
2018-01-14T07:02:28.689Z,38.90
2018-01-14T07:03:28.553Z,36.90
2018-01-14T07:04:28.567Z,38.00
2018-01-14T07:05:28.582Z,37.20
2018-01-14T07:06:28.597Z,36.70
2018-01-14T07:07:28.613Z,37.80
2018-01-14T07:08:28.627Z,35.50
2018-01-14T07:09:28.641Z,36.70
2018-01-14T07:10:28.656Z,37.50
2018-01-14T07:11:28.672Z,40.30
2018-01-14T07:12:28.685Z,41.80
2018-01-14T07:13:28.700Z,36.50
2018-01-14T07:14:28.715Z,36.10
2018-01-14T07:15:28.730Z,38.20
2018-01-14T07:16:28.745Z,37.40
2018-01-14T07:17:28.760Z,35.90
2018-01-14T07:18:28.774Z,38.10
2018-01-14T07:19:28.789Z,35.60
2018-01-14T07:20:28.803Z,34.30
2018-01-14T07:21:28.818Z,35.40
2018-01-14T07:22:28.832Z,36.80
2018-01-14T07:23:28.847Z,34.50
2018-01-14T07:24:28.862Z,38.70
2018-01-14T07:25:28.877Z,35.70
2018-01-14T07:26:28.891Z,38.30
2018-01-14T07:27:28.906Z,40.90
2018-01-14T07:28:28.920Z,37.90
2018-01-14T07:29:28.935Z,37.50
2018-01-14T07:30:28.950Z,36.40
2018-01-14T07:31:28.965Z,34.90
2018-01-14T07:32:28.981Z,36.70
2018-01-14T07:33:28.995Z,34.70
2018-01-14T07:34:29.009Z,37.90
2018-01-14T07:35:29.024Z,36.20
2018-01-14T07:36:29.038Z,35.50
2018-01-14T07:37:29.053Z,36.20
2018-01-14T07:38:29.068Z,38.20
2018-01-14T07:39:29.082Z,38.10
2018-01-14T07:40:29.099Z,36.50
2018-01-14T07:41:29.112Z,38.50
2018-01-14T07:42:29.126Z,34.90
2018-01-14T07:43:29.141Z,33.70
2018-01-14T07:44:29.199Z,35.80
2018-01-14T07:45:29.171Z,35.30
2018-01-14T07:46:29.184Z,35.60
2018-01-14T07:47:29.200Z,36.20
2018-01-14T07:48:29.214Z,37.50
2018-01-14T07:49:29.379Z,33.10
2018-01-14T07:50:29.244Z,36.00
2018-01-14T07:51:29.259Z,34.40
2018-01-14T07:52:29.272Z,33.80
2018-01-14T07:53:29.287Z,36.00
2018-01-14T07:54:29.302Z,36.10
2018-01-14T07:55:29.317Z,36.00
2018-01-14T07:56:29.331Z,39.30
2018-01-14T07:57:29.346Z,36.10
2018-01-14T07:58:29.361Z,33.90
2018-01-14T07:59:29.376Z,36.30
2018-01-14T08:00:29.390Z,32.00
2018-01-14T08:01:29.405Z,32.70
2018-01-14T08:02:29.428Z,33.30
2018-01-14T08:03:29.434Z,33.90
2018-01-14T08:04:29.449Z,36.30
2018-01-14T08:05:29.465Z,35.50
2018-01-14T08:06:29.479Z,33.90
2018-01-14T08:07:29.493Z,37.10
2018-01-14T08:08:29.508Z,33.40
2018-01-14T08:09:29.522Z,33.30
2018-01-14T08:10:29.538Z,36.20
2018-01-14T08:11:29.603Z,34.90
2018-01-14T08:12:29.567Z,34.00
2018-01-14T08:13:29.582Z,33.50
2018-01-14T08:14:29.597Z,35.40
2018-01-14T08:15:29.612Z,38.20
2018-01-14T08:16:29.625Z,33.80
2018-01-14T08:17:29.641Z,32.80
2018-01-14T08:18:29.655Z,34.00
2018-01-14T08:19:29.674Z,32.10
2018-01-14T08:20:29.684Z,35.70
2018-01-14T08:21:29.699Z,37.20
2018-01-14T08:22:29.714Z,35.60
2018-01-14T08:23:29.731Z,35.20
2018-01-14T08:24:29.744Z,40.10
2018-01-14T08:25:29.759Z,35.00
2018-01-14T08:26:29.773Z,37.10
2018-01-14T08:27:29.789Z,35.90
2018-01-14T08:28:29.802Z,35.40
2018-01-14T08:29:29.818Z,36.00
2018-01-14T08:30:29.833Z,35.20
2018-01-14T08:31:29.847Z,34.30
2018-01-14T08:32:29.861Z,36.70
2018-01-14T08:33:29.876Z,37.00
2018-01-14T08:34:29.892Z,32.40
2018-01-14T08:35:29.907Z,33.20
2018-01-14T08:36:30.071Z,35.70
2018-01-14T08:37:29.936Z,37.80
2018-01-14T08:38:29.956Z,36.80
2018-01-14T08:39:29.965Z,37.20
2018-01-14T08:40:29.980Z,32.00
2018-01-14T08:41:29.995Z,35.80
2018-01-14T08:42:30.010Z,35.30
2018-01-14T08:43:30.026Z,37.70
2018-01-14T08:44:30.042Z,37.40
2018-01-14T08:45:30.054Z,35.90
2018-01-14T08:46:30.069Z,35.40
2018-01-14T08:47:30.084Z,39.10
2018-01-14T08:48:30.102Z,33.30
2018-01-14T08:49:30.114Z,36.40
2018-01-14T08:50:30.128Z,35.60
2018-01-14T08:51:30.143Z,35.10
2018-01-14T08:52:30.157Z,36.50
2018-01-14T08:53:30.173Z,39.20
2018-01-14T08:54:30.189Z,37.60
2018-01-14T08:55:30.202Z,37.70
2018-01-14T08:56:30.218Z,38.70
2018-01-14T08:57:30.232Z,36.60
2018-01-14T08:58:30.246Z,37.70
2018-01-14T08:59:30.262Z,39.30
2018-01-14T09:00:30.276Z,37.20
2018-01-14T09:01:30.291Z,36.10
2018-01-14T09:02:30.306Z,39.80
2018-01-14T09:03:30.322Z,39.00
2018-01-14T09:04:30.336Z,37.00
2018-01-14T09:05:30.353Z,37.80
2018-01-14T09:06:30.365Z,35.70
2018-01-14T09:07:30.381Z,37.60
2018-01-14T09:08:30.394Z,38.50
2018-01-14T09:09:30.410Z,39.70
2018-01-14T09:10:30.425Z,40.50
2018-01-14T09:11:30.440Z,40.80
2018-01-14T09:12:30.460Z,37.00
2018-01-14T09:13:30.470Z,34.00
2018-01-14T09:14:30.485Z,39.40
2018-01-14T09:15:30.500Z,36.60
2018-01-14T09:16:30.515Z,37.10
2018-01-14T09:17:30.529Z,41.70
2018-01-14T09:18:30.545Z,39.70
2018-01-14T09:19:30.561Z,38.40
2018-01-14T09:20:30.574Z,40.20
2018-01-14T09:21:30.590Z,40.10
2018-01-14T09:22:30.605Z,40.10
2018-01-14T09:23:30.619Z,41.40
2018-01-14T09:24:30.634Z,36.60
2018-01-14T09:25:30.648Z,39.00
2018-01-14T09:26:30.667Z,37.80
2018-01-14T09:27:30.681Z,40.70
2018-01-14T09:28:30.695Z,38.10
2018-01-14T09:29:30.709Z,39.50
2018-01-14T09:30:30.725Z,39.30
2018-01-14T09:31:30.894Z,36.70
2018-01-14T09:32:30.756Z,37.70
2018-01-14T09:33:30.770Z,37.30
2018-01-14T09:34:30.786Z,37.90
2018-01-14T09:35:30.801Z,34.60
2018-01-14T09:36:30.815Z,40.20
2018-01-14T09:37:30.830Z,36.70
2018-01-14T09:38:30.846Z,37.50
2018-01-14T09:39:30.862Z,36.50
2018-01-14T09:40:30.876Z,37.60
2018-01-14T09:41:30.912Z,34.90
2018-01-14T09:42:30.907Z,36.30
2018-01-14T09:43:30.922Z,34.40
2018-01-14T09:44:30.936Z,38.00
2018-01-14T09:45:30.951Z,34.70
2018-01-14T09:46:30.967Z,35.80
2018-01-14T09:47:30.982Z,32.60
2018-01-14T09:48:30.996Z,34.20
2018-01-14T09:49:31.012Z,32.90
2018-01-14T09:50:31.029Z,32.40
2018-01-14T09:51:31.042Z,33.40
2018-01-14T09:52:31.213Z,34.90
2018-01-14T09:53:31.072Z,32.90
2018-01-14T09:54:31.090Z,34.20
2018-01-14T09:55:31.103Z,39.50
2018-01-14T09:56:31.118Z,34.10
2018-01-14T09:57:31.134Z,35.90
2018-01-14T09:58:31.148Z,34.40
2018-01-14T09:59:31.315Z,32.40
2018-01-14T10:00:31.178Z,32.20
2018-01-14T10:01:31.194Z,32.20
2018-01-14T10:02:31.209Z,33.70
2018-01-14T10:03:31.225Z,34.30
2018-01-14T10:04:31.240Z,35.80
2018-01-14T10:05:31.254Z,33.10
2018-01-14T10:06:31.271Z,35.00
2018-01-14T10:07:31.286Z,30.60
2018-01-14T10:08:31.301Z,30.20
2018-01-14T10:09:31.317Z,32.90
2018-01-14T10:10:31.331Z,28.90
2018-01-14T10:11:31.347Z,30.20
2018-01-14T10:12:31.363Z,32.20
2018-01-14T10:13:31.378Z,28.40
2018-01-14T10:14:31.393Z,26.60
2018-01-14T10:15:31.408Z,28.20
2018-01-14T10:16:31.423Z,28.30
2018-01-14T10:17:31.438Z,28.30
2018-01-14T10:18:31.455Z,30.80
2018-01-14T10:19:31.621Z,29.80
2018-01-14T10:20:31.484Z,31.30
2018-01-14T10:21:31.500Z,28.50
2018-01-14T10:22:31.516Z,31.30
2018-01-14T10:23:31.532Z,29.60
2018-01-14T10:24:31.546Z,29.90
2018-01-14T10:25:31.562Z,29.90
2018-01-14T10:26:31.578Z,28.80
2018-01-14T10:27:31.643Z,28.90
2018-01-14T10:28:31.608Z,29.60
2018-01-14T10:29:31.624Z,30.20
2018-01-14T10:30:31.639Z,32.20
2018-01-14T10:31:31.655Z,29.80
2018-01-14T10:32:31.670Z,26.00
2018-01-14T10:33:31.686Z,28.90
2018-01-14T10:34:31.701Z,29.40
2018-01-14T10:35:31.717Z,32.40
2018-01-14T10:36:31.732Z,30.90
2018-01-14T10:37:31.748Z,31.60
2018-01-14T10:38:31.766Z,32.30
2018-01-14T10:39:31.780Z,32.00
2018-01-14T10:40:31.795Z,30.90
2018-01-14T10:41:31.810Z,32.00
2018-01-14T10:42:31.826Z,32.90
2018-01-14T10:43:31.849Z,31.30
2018-01-14T10:44:31.856Z,31.90
2018-01-14T10:45:31.872Z,33.60
2018-01-14T10:46:31.887Z,34.80
2018-01-14T10:47:31.904Z,32.30
2018-01-14T10:48:31.918Z,29.90
2018-01-14T10:49:31.937Z,29.30
2018-01-14T10:50:31.950Z,29.70
2018-01-14T10:51:31.966Z,32.40
2018-01-14T10:52:31.981Z,32.60
2018-01-14T10:53:31.995Z,32.40
2018-01-14T10:54:32.013Z,30.50
2018-01-14T10:55:32.027Z,33.20
2018-01-14T10:56:32.042Z,30.10
2018-01-14T10:57:32.058Z,30.70
2018-01-14T10:58:32.074Z,32.10
2018-01-14T10:59:32.089Z,32.60
2018-01-14T11:00:32.105Z,31.80
2018-01-14T11:01:32.121Z,32.70
2018-01-14T11:02:32.136Z,31.60
2018-01-14T11:03:32.153Z,29.20
2018-01-14T11:04:32.166Z,31.10
2018-01-14T11:05:32.183Z,30.80
2018-01-14T11:06:32.198Z,30.10
2018-01-14T11:07:32.214Z,33.00
2018-01-14T11:08:32.229Z,29.00
2018-01-14T11:09:32.245Z,31.90
2018-01-14T11:10:32.261Z,31.10
2018-01-14T11:11:32.277Z,30.00
2018-01-14T11:12:32.291Z,32.80
2018-01-14T11:13:32.307Z,30.00
2018-01-14T11:14:32.323Z,31.50
2018-01-14T11:15:32.339Z,30.70
2018-01-14T11:16:32.354Z,31.40
2018-01-14T11:17:32.369Z,29.30
2018-01-14T11:18:32.385Z,32.10
2018-01-14T11:19:32.400Z,30.20
2018-01-14T11:20:32.415Z,29.40
2018-01-14T11:21:32.431Z,30.90
2018-01-14T11:22:32.450Z,33.00
2018-01-14T11:23:32.463Z,31.20
2018-01-14T11:24:32.478Z,31.80
2018-01-14T11:25:32.495Z,28.50
2018-01-14T11:26:32.510Z,30.30
2018-01-14T11:27:32.526Z,27.40
2018-01-14T11:28:32.542Z,29.20
2018-01-14T11:29:32.557Z,29.60
2018-01-14T11:30:32.573Z,28.30
2018-01-14T11:31:32.588Z,28.90
2018-01-14T11:32:32.604Z,27.50
2018-01-14T11:33:32.620Z,28.90
2018-01-14T11:34:32.636Z,29.70
2018-01-14T11:35:32.702Z,30.80
2018-01-14T11:36:32.667Z,26.40
2018-01-14T11:37:32.683Z,28.00
2018-01-14T11:38:32.698Z,27.30
2018-01-14T11:39:32.715Z,24.80
2018-01-14T11:40:32.730Z,29.40
2018-01-14T11:41:32.747Z,27.30
2018-01-14T11:42:32.765Z,27.70
2018-01-14T11:43:32.778Z,27.70
2018-01-14T11:44:32.793Z,26.40
2018-01-14T11:45:32.809Z,31.10
2018-01-14T11:46:32.825Z,26.60
2018-01-14T11:47:32.842Z,24.70
2018-01-14T11:48:32.858Z,26.00
2018-01-14T11:49:32.873Z,26.30
2018-01-14T11:50:32.889Z,24.40
2018-01-14T11:51:32.905Z,25.10
2018-01-14T11:52:32.920Z,25.30
2018-01-14T11:53:32.936Z,24.90
2018-01-14T11:54:32.953Z,27.70
2018-01-14T11:55:32.969Z,25.80
2018-01-14T11:56:32.984Z,27.60
2018-01-14T11:57:32.999Z,25.00
2018-01-14T11:58:33.016Z,26.30
2018-01-14T11:59:33.032Z,27.70
2018-01-14T12:00:33.048Z,24.10
2018-01-14T12:01:33.064Z,25.90
2018-01-14T12:02:33.080Z,27.00
2018-01-14T12:03:33.096Z,25.70
2018-01-14T12:04:33.111Z,25.90
2018-01-14T12:05:33.130Z,26.40
2018-01-14T12:06:33.144Z,26.60
2018-01-14T12:07:33.163Z,27.40
2018-01-14T12:08:33.175Z,25.90
2018-01-14T12:09:33.191Z,23.70
2018-01-14T12:10:33.208Z,25.00
2018-01-14T12:11:33.225Z,26.70
2018-01-14T12:12:33.240Z,25.30
2018-01-14T12:13:33.257Z,25.20
2018-01-14T12:14:33.272Z,24.80
2018-01-14T12:15:33.289Z,22.90
2018-01-14T12:16:33.305Z,26.30
2018-01-14T12:17:33.322Z,22.70
2018-01-14T12:18:33.337Z,24.00
2018-01-14T12:19:33.354Z,21.20
2018-01-14T12:20:33.369Z,22.60
2018-01-14T12:21:33.385Z,23.00
2018-01-14T12:22:33.403Z,22.10
2018-01-14T12:23:33.421Z,21.10
2018-01-14T12:24:33.433Z,20.10
2018-01-14T12:25:33.451Z,23.70
2018-01-14T12:26:33.467Z,21.90
2018-01-14T12:27:33.564Z,21.50
2018-01-14T12:28:33.498Z,20.60
2018-01-14T12:29:33.515Z,23.20
2018-01-14T12:30:33.531Z,25.30
2018-01-14T12:31:33.547Z,22.60
2018-01-14T12:32:33.563Z,19.40
2018-01-14T12:33:33.579Z,20.40
2018-01-14T12:34:33.596Z,21.30
2018-01-14T12:35:33.612Z,21.20
2018-01-14T12:36:33.627Z,24.70
2018-01-14T12:37:33.646Z,24.40
2018-01-14T12:38:33.659Z,21.10
2018-01-14T12:39:33.677Z,19.60
2018-01-14T12:40:33.692Z,22.00
2018-01-14T12:41:33.707Z,21.50
2018-01-14T12:42:33.724Z,20.60
2018-01-14T12:43:33.740Z,23.30
2018-01-14T12:44:33.756Z,21.90
2018-01-14T12:45:33.772Z,22.50
2018-01-14T12:46:33.788Z,22.40
2018-01-14T12:47:33.832Z,20.60
2018-01-14T12:48:33.820Z,20.40
2018-01-14T12:49:33.836Z,21.30
2018-01-14T12:50:33.853Z,21.80
2018-01-14T12:51:33.869Z,20.40
2018-01-14T12:52:33.883Z,22.10